Terminal Aerodrome Forecast
Issued by NWS

Home | Current Version | Previous Version | Text Only | Print | Product List | Glossary On
Versions: 1 2 3 4 5 6 7 8 9 10 11 12 13 14 15 16 17 18 19 20 21 22 23 24 25 26 27 28 29 30 31 32 33 34 35 36 37 38 39 40 41
000
FTUS43 KDTX 300200 AAA
TAFPTK
TAF AMD
KPTK 300202Z 3002/3024 26011KT P6SM BKN045 BKN080
      TEMPO 3002/3003 5SM -TSRA BKN040CB OVC060
     FM300300 28005KT P6SM SCT060 SCT080 BKN200
     FM301500 26008KT P6SM BKN050 BKN150=

USA.gov is the U.S. government's official web portal to all federal, state and local government web resources and services.